createdAt,value
2022-11-05T00:00:33.544Z,61.30
2022-11-05T00:03:20.269Z,61.40
2022-11-05T00:06:10.437Z,61.40
2022-11-05T00:08:57.181Z,61.40
2022-11-05T00:11:46.399Z,61.40
2022-11-05T00:14:33.319Z,61.40
2022-11-05T00:17:02.462Z,61.40
2022-11-05T00:19:31.570Z,61.40
2022-11-05T00:22:19.501Z,61.50
2022-11-05T00:25:06.244Z,61.40
2022-11-05T00:27:35.751Z,61.40
2022-11-05T00:30:09.382Z,61.30
2022-11-05T00:32:39.258Z,61.40
2022-11-05T00:35:09.894Z,61.40
2022-11-05T00:37:44.345Z,61.30
2022-11-05T00:40:16.891Z,61.30
2022-11-05T00:43:03.508Z,61.20
2022-11-05T00:45:33.509Z,61.30
2022-11-05T00:48:19.951Z,61.30
2022-11-05T00:50:49.069Z,61.30
2022-11-05T00:53:19.587Z,61.30
2022-11-05T00:55:48.791Z,61.30
2022-11-05T00:58:19.774Z,61.30
2022-11-05T01:00:51.996Z,61.10
2022-11-05T01:03:23.335Z,61.20
2022-11-05T01:05:55.059Z,61.20
2022-11-05T01:08:27.049Z,61.20
2022-11-05T01:10:58.048Z,61.20
2022-11-05T01:13:30.263Z,61.20
2022-11-05T01:16:05.852Z,61.20
2022-11-05T01:18:35.086Z,61.10
2022-11-05T01:21:11.978Z,61.20
2022-11-05T01:23:42.717Z,61.20
2022-11-05T01:26:11.830Z,61.10
2022-11-05T01:28:41.053Z,61.20
2022-11-05T01:31:10.240Z,61.10
2022-11-05T01:33:39.382Z,61.30
2022-11-05T01:36:08.984Z,61.20
2022-11-05T01:38:38.298Z,61.30
2022-11-05T01:41:09.739Z,61.20
2022-11-05T01:43:49.616Z,61.10
2022-11-05T01:46:23.080Z,61.10
2022-11-05T01:48:58.566Z,61.20
2022-11-05T01:51:31.095Z,61.20
2022-11-05T01:54:04.157Z,61.20
2022-11-05T01:56:37.501Z,61.10
2022-11-05T01:59:11.488Z,61.10
2022-11-05T02:01:40.885Z,61.10
2022-11-05T02:04:13.200Z,61.10
2022-11-05T02:06:46.339Z,61.20
2022-11-05T02:09:22.027Z,61.20
2022-11-05T02:11:53.565Z,61.20
2022-11-05T02:14:22.767Z,61.20
2022-11-05T02:16:58.307Z,61.10
2022-11-05T02:20:00.543Z,61.20
2022-11-05T02:23:00.343Z,61.10
2022-11-05T02:26:05.511Z,61.30
2022-11-05T02:29:06.077Z,61.20
2022-11-05T02:31:40.298Z,61.20
2022-11-05T02:34:21.674Z,61.30
2022-11-05T02:36:56.965Z,61.30
2022-11-05T02:39:40.390Z,61.30
2022-11-05T02:42:15.471Z,61.20
2022-11-05T02:44:54.436Z,61.20
2022-11-05T02:47:34.658Z,61.20
2022-11-05T02:50:12.685Z,61.20
2022-11-05T02:52:48.452Z,61.30
2022-11-05T02:55:24.386Z,61.20
2022-11-05T02:57:53.499Z,61.20
2022-11-05T03:00:46.528Z,61.20
2022-11-05T03:03:23.123Z,61.20
2022-11-05T03:06:06.779Z,61.20
2022-11-05T03:08:44.927Z,61.30
2022-11-05T03:11:17.163Z,61.30
2022-11-05T03:13:54.283Z,61.20
2022-11-05T03:16:31.126Z,61.30
2022-11-05T03:19:09.285Z,61.20
2022-11-05T03:21:47.003Z,61.20
2022-11-05T03:24:21.833Z,61.20
2022-11-05T03:26:55.952Z,61.30
2022-11-05T03:29:29.852Z,61.30
2022-11-05T03:32:03.856Z,61.20
2022-11-05T03:34:39.865Z,61.20
2022-11-05T03:37:10.831Z,61.20
2022-11-05T03:39:44.528Z,61.20
2022-11-05T03:42:17.844Z,61.20
2022-11-05T03:44:51.568Z,61.10
2022-11-05T03:47:23.971Z,61.10
2022-11-05T03:50:00.497Z,61.10
2022-11-05T03:52:34.854Z,61.90
2022-11-05T03:55:04.245Z,61.20
2022-11-05T03:57:37.896Z,61.10
2022-11-05T04:00:09.995Z,61.10
2022-11-05T04:02:43.031Z,61.10
2022-11-05T04:05:13.808Z,61.20
2022-11-05T04:08:01.449Z,61.10
2022-11-05T04:10:48.186Z,61.10
2022-11-05T04:13:26.187Z,61.10
2022-11-05T04:16:14.372Z,61.20
2022-11-05T04:18:44.499Z,61.20
2022-11-05T04:21:32.667Z,61.10
2022-11-05T04:24:10.899Z,61.10
2022-11-05T04:26:41.439Z,61.10
2022-11-05T04:29:27.923Z,61.10
2022-11-05T04:31:57.081Z,61.10
2022-11-05T04:34:26.199Z,61.10
2022-11-05T04:36:56.703Z,61.10
2022-11-05T04:39:25.821Z,61.10
2022-11-05T04:41:55.027Z,61.00
2022-11-05T04:44:24.483Z,61.00
2022-11-05T04:46:53.569Z,61.10
2022-11-05T04:49:22.704Z,61.10
2022-11-05T04:51:51.750Z,61.10
2022-11-05T04:54:22.343Z,61.00
2022-11-05T04:56:51.550Z,61.10
2022-11-05T04:59:20.684Z,61.10
2022-11-05T05:01:53.211Z,61.10
2022-11-05T05:04:22.484Z,61.10
2022-11-05T05:06:51.593Z,61.00
2022-11-05T05:09:22.475Z,61.00
2022-11-05T05:11:51.600Z,61.00
2022-11-05T05:14:20.865Z,61.00
2022-11-05T05:16:49.976Z,61.00
2022-11-05T05:19:19.056Z,61.00
2022-11-05T05:21:47.128Z,61.00
2022-11-05T05:24:17.522Z,61.00
2022-11-05T05:26:50.325Z,61.00
2022-11-05T05:29:19.674Z,61.00
2022-11-05T05:31:48.798Z,61.00
2022-11-05T05:34:18.132Z,61.80
2022-11-05T05:36:47.235Z,61.00
2022-11-05T05:39:16.473Z,61.00
2022-11-05T05:41:45.571Z,61.20
2022-11-05T05:44:16.261Z,61.10
2022-11-05T05:46:45.410Z,61.10
2022-11-05T05:49:15.228Z,61.00
2022-11-05T05:51:44.358Z,61.00
2022-11-05T05:54:13.773Z,61.10
2022-11-05T05:56:45.368Z,61.00
2022-11-05T05:59:16.261Z,61.10
2022-11-05T06:01:45.539Z,61.10
2022-11-05T06:04:14.803Z,60.90
2022-11-05T06:06:47.019Z,60.90
2022-11-05T06:09:16.752Z,61.00
2022-11-05T06:11:45.909Z,61.00
2022-11-05T06:14:16.767Z,60.60
2022-11-05T06:16:45.848Z,60.90
2022-11-05T06:19:14.904Z,61.10
2022-11-05T06:21:44.114Z,61.10
2022-11-05T06:24:13.230Z,61.00
2022-11-05T06:26:43.612Z,60.80
2022-11-05T06:29:12.948Z,60.70
2022-11-05T06:31:44.104Z,60.50
2022-11-05T06:34:13.319Z,60.40
2022-11-05T06:36:42.592Z,60.30
2022-11-05T06:39:12.465Z,60.30
2022-11-05T06:42:17.348Z,60.20
2022-11-05T06:44:31.133Z,60.00
2022-11-05T06:47:01.876Z,60.00
2022-11-05T06:49:31.152Z,60.00
2022-11-05T06:52:00.377Z,60.00
2022-11-05T06:54:29.654Z,60.00
2022-11-05T06:56:58.902Z,59.90
2022-11-05T06:59:28.187Z,59.90
2022-11-05T07:01:57.919Z,59.80
2022-11-05T07:04:28.662Z,59.80
2022-11-05T07:06:57.826Z,59.80
2022-11-05T07:09:27.073Z,59.70
2022-11-05T07:11:56.349Z,59.70
2022-11-05T07:14:25.775Z,59.70
2022-11-05T07:16:55.122Z,59.60
2022-11-05T07:19:24.270Z,59.60
2022-11-05T07:21:54.819Z,59.70
2022-11-05T07:24:24.005Z,59.70
2022-11-05T07:26:53.197Z,59.60
2022-11-05T07:29:22.357Z,59.60
2022-11-05T07:31:51.458Z,59.50
2022-11-05T07:34:20.750Z,59.50
2022-11-05T07:36:51.562Z,59.50
2022-11-05T07:39:23.613Z,59.60
2022-11-05T07:41:54.959Z,59.50
2022-11-05T07:44:24.182Z,59.50
2022-11-05T07:46:53.508Z,59.50
2022-11-05T07:49:24.018Z,59.50
2022-11-05T07:51:57.020Z,59.40
2022-11-05T07:54:28.210Z,59.30
2022-11-05T07:56:57.418Z,59.50
2022-11-05T07:59:26.706Z,59.80
2022-11-05T08:01:56.027Z,59.90
2022-11-05T08:04:25.611Z,60.00
2022-11-05T08:06:55.154Z,60.00
2022-11-05T08:09:24.466Z,60.30
2022-11-05T08:11:59.828Z,60.40
2022-11-05T08:14:31.718Z,60.90
2022-11-05T08:17:01.065Z,61.40
2022-11-05T08:19:30.243Z,61.50
2022-11-05T08:21:59.412Z,61.70
2022-11-05T08:24:28.660Z,61.60
2022-11-05T08:26:59.266Z,61.10
2022-11-05T08:29:28.564Z,61.30
2022-11-05T08:31:57.742Z,61.50
2022-11-05T08:34:27.084Z,61.40
2022-11-05T08:36:56.258Z,61.50
2022-11-05T08:39:25.560Z,61.50
2022-11-05T08:41:54.773Z,61.60
2022-11-05T08:44:25.720Z,61.60
2022-11-05T08:46:55.662Z,61.60
2022-11-05T08:49:24.886Z,61.70
2022-11-05T08:51:54.155Z,61.70
2022-11-05T08:54:23.475Z,62.00
2022-11-05T08:56:52.789Z,61.90
2022-11-05T08:59:22.058Z,61.90
2022-11-05T09:01:53.314Z,62.00
2022-11-05T09:04:22.834Z,62.10
2022-11-05T09:06:51.983Z,62.30
2022-11-05T09:09:21.252Z,62.20
2022-11-05T09:12:11.148Z,62.00
2022-11-05T09:14:39.693Z,61.80
2022-11-05T09:17:21.246Z,61.70
2022-11-05T09:19:55.554Z,60.80
2022-11-05T09:22:24.896Z,60.90
2022-11-05T09:24:54.060Z,61.30
2022-11-05T09:27:23.397Z,61.20
2022-11-05T09:29:52.623Z,61.00
2022-11-05T09:32:23.447Z,61.10
2022-11-05T09:34:52.806Z,60.90
2022-11-05T09:37:23.342Z,60.70
2022-11-05T09:39:52.582Z,61.50
2022-11-05T09:42:25.123Z,60.80
2022-11-05T09:44:59.512Z,60.60
2022-11-05T09:47:35.229Z,61.30
2022-11-05T09:50:09.493Z,60.40
2022-11-05T09:52:39.694Z,60.20
2022-11-05T09:55:19.820Z,60.10
2022-11-05T09:57:54.407Z,60.10
2022-11-05T10:00:23.913Z,60.00
2022-11-05T10:02:57.124Z,59.90
2022-11-05T10:05:27.516Z,59.90
2022-11-05T10:08:02.720Z,59.90
2022-11-05T10:10:41.111Z,59.80
2022-11-05T10:13:20.770Z,59.70
2022-11-05T10:15:56.821Z,59.60
2022-11-05T10:18:34.262Z,59.60
2022-11-05T10:21:04.036Z,59.50
2022-11-05T10:23:34.553Z,59.50
2022-11-05T10:26:06.652Z,59.40
2022-11-05T10:28:36.705Z,59.40
2022-11-05T10:31:09.318Z,60.00
2022-11-05T10:33:43.983Z,59.40
2022-11-05T10:36:16.527Z,59.40
2022-11-05T10:38:45.956Z,59.40
2022-11-05T10:41:34.254Z,59.30
2022-11-05T10:44:18.796Z,59.20
2022-11-05T10:46:52.454Z,59.20
2022-11-05T10:49:38.561Z,59.20
2022-11-05T10:52:21.491Z,59.10
2022-11-05T10:54:53.356Z,59.00
2022-11-05T10:57:31.035Z,59.00
2022-11-05T11:00:24.603Z,59.00
2022-11-05T11:02:56.114Z,59.00
2022-11-05T11:05:30.264Z,58.90
2022-11-05T11:08:03.520Z,58.80
2022-11-05T11:10:37.409Z,58.70
2022-11-05T11:13:08.040Z,58.80
2022-11-05T11:15:37.594Z,58.70
2022-11-05T11:18:32.459Z,58.70
2022-11-05T11:21:15.539Z,58.70
2022-11-05T11:23:54.435Z,58.70
2022-11-05T11:26:25.553Z,58.60
2022-11-05T11:29:00.610Z,58.80
2022-11-05T11:31:32.994Z,58.50
2022-11-05T11:34:04.976Z,58.50
2022-11-05T11:36:37.826Z,58.60
2022-11-05T11:39:08.444Z,58.60
2022-11-05T11:41:42.017Z,58.50
2022-11-05T11:44:17.594Z,58.70
2022-11-05T11:46:50.760Z,58.80
2022-11-05T11:49:34.193Z,58.70
2022-11-05T11:52:07.254Z,58.70
2022-11-05T11:54:36.710Z,58.50
2022-11-05T11:57:21.165Z,58.40
2022-11-05T12:03:01.530Z,58.30
2022-11-05T12:09:05.189Z,58.10
2022-11-05T12:12:06.644Z,58.80
2022-11-05T12:14:46.618Z,58.20
2022-11-05T12:17:35.895Z,58.20
2022-11-05T12:20:25.206Z,57.90
2022-11-05T12:23:14.226Z,58.00
2022-11-05T12:25:53.369Z,58.00
2022-11-05T12:29:16.565Z,58.10
2022-11-05T12:31:48.687Z,58.80
2022-11-05T12:34:42.137Z,65.70
2022-11-05T12:37:22.988Z,61.60
2022-11-05T12:40:04.979Z,60.80
2022-11-05T12:42:48.701Z,60.50
2022-11-05T12:45:31.140Z,60.30
2022-11-05T12:48:13.668Z,60.00
2022-11-05T12:50:47.059Z,59.80
2022-11-05T12:53:41.468Z,59.60
2022-11-05T12:56:17.192Z,59.40
2022-11-05T12:58:53.175Z,59.30
2022-11-05T13:01:28.177Z,59.30
2022-11-05T13:04:01.011Z,59.20
2022-11-05T13:06:34.434Z,59.20
2022-11-05T13:09:08.656Z,59.20
2022-11-05T13:11:43.489Z,59.50
2022-11-05T13:14:17.250Z,59.70
2022-11-05T13:16:50.569Z,59.90
2022-11-05T13:19:24.707Z,60.00
2022-11-05T13:21:58.046Z,60.00
2022-11-05T13:24:32.562Z,60.00
2022-11-05T13:27:09.644Z,59.80
2022-11-05T13:29:47.687Z,59.70
2022-11-05T13:32:26.233Z,59.60
2022-11-05T13:34:57.473Z,59.60
2022-11-05T13:37:48.907Z,59.60
2022-11-05T13:40:25.087Z,59.50
2022-11-05T13:43:16.176Z,59.60
2022-11-05T13:46:06.036Z,59.60
2022-11-05T13:49:10.827Z,59.70
2022-11-05T13:51:54.409Z,59.60
2022-11-05T13:55:01.314Z,59.70
2022-11-05T13:58:18.078Z,59.60
2022-11-05T14:00:59.114Z,59.70
2022-11-05T14:03:29.495Z,59.70
2022-11-05T14:06:04.947Z,59.70
2022-11-05T14:08:41.274Z,59.60
2022-11-05T14:11:23.239Z,59.60
2022-11-05T14:13:57.421Z,59.60
2022-11-05T14:16:29.738Z,59.50
2022-11-05T14:19:28.776Z,59.50
2022-11-05T14:21:58.739Z,59.60
2022-11-05T14:24:47.457Z,59.50
2022-11-05T14:27:46.785Z,59.40
2022-11-05T14:30:42.410Z,59.30
2022-11-05T14:33:33.551Z,59.30
2022-11-05T14:36:28.292Z,59.30
2022-11-05T14:39:20.139Z,59.20
2022-11-05T14:42:03.472Z,58.90
2022-11-05T14:44:34.860Z,58.70
2022-11-05T14:47:06.888Z,58.30
2022-11-05T14:49:40.052Z,58.50
2022-11-05T14:52:11.268Z,59.00
2022-11-05T14:54:45.233Z,59.20
2022-11-05T14:57:16.278Z,59.40
2022-11-05T14:59:54.650Z,59.40
2022-11-05T15:02:28.845Z,59.60
2022-11-05T15:05:35.381Z,59.60
2022-11-05T15:08:38.711Z,59.70
2022-11-05T15:11:16.274Z,60.20
2022-11-05T15:13:58.155Z,59.80
2022-11-05T15:16:32.871Z,60.30
2022-11-05T15:19:06.350Z,59.10
2022-11-05T15:21:38.894Z,59.20
2022-11-05T15:24:14.051Z,59.90
2022-11-05T15:26:47.632Z,60.10
2022-11-05T15:29:19.792Z,59.90
2022-11-05T15:31:49.916Z,60.00
2022-11-05T15:34:22.253Z,59.90
2022-11-05T15:36:53.995Z,59.80
2022-11-05T15:39:30.321Z,59.90
2022-11-05T15:42:02.367Z,60.00
2022-11-05T15:44:34.917Z,60.00
2022-11-05T15:47:09.313Z,60.00
2022-11-05T15:49:38.748Z,60.00
2022-11-05T15:52:09.282Z,60.00
2022-11-05T15:54:40.150Z,60.00
2022-11-05T15:57:25.007Z,60.00
2022-11-05T15:59:57.219Z,60.00
2022-11-05T16:02:32.131Z,60.00
2022-11-05T16:05:03.918Z,60.00
2022-11-05T16:07:33.214Z,60.00
2022-11-05T16:10:07.399Z,60.00
2022-11-05T16:12:40.892Z,60.00
2022-11-05T16:15:22.214Z,60.10
2022-11-05T16:17:54.675Z,60.00
2022-11-05T16:20:32.361Z,60.00
2022-11-05T16:23:03.560Z,60.00
2022-11-05T16:25:42.098Z,60.00
2022-11-05T16:28:23.310Z,60.00
2022-11-05T16:30:57.098Z,60.00
2022-11-05T16:33:28.272Z,60.00
2022-11-05T16:35:57.508Z,60.00
2022-11-05T16:38:27.013Z,60.00
2022-11-05T16:40:58.033Z,60.10
2022-11-05T16:43:27.888Z,60.00
2022-11-05T16:45:59.492Z,60.00
2022-11-05T16:48:29.049Z,60.00
2022-11-05T16:50:58.302Z,60.00
2022-11-05T16:53:27.501Z,60.00
2022-11-05T16:55:58.108Z,60.00
2022-11-05T16:58:27.945Z,60.00
2022-11-05T17:01:01.461Z,60.00
2022-11-05T17:03:30.723Z,60.00
2022-11-05T17:05:59.954Z,59.90
2022-11-05T17:08:29.074Z,60.00
2022-11-05T17:10:59.911Z,60.00
2022-11-05T17:13:29.451Z,60.00
2022-11-05T17:15:58.626Z,60.00
2022-11-05T17:18:27.769Z,60.00
2022-11-05T17:20:57.576Z,60.00
2022-11-05T17:23:29.031Z,60.00
2022-11-05T17:26:03.881Z,59.90
2022-11-05T17:28:33.453Z,59.90
2022-11-05T17:31:04.094Z,60.00
2022-11-05T17:33:33.459Z,59.90
2022-11-05T17:36:07.650Z,60.00
2022-11-05T17:38:36.940Z,60.00
2022-11-05T17:41:13.805Z,59.90
2022-11-05T17:43:43.001Z,60.00
2022-11-05T17:46:14.599Z,60.00
2022-11-05T17:48:44.915Z,60.00
2022-11-05T17:51:17.291Z,60.00
2022-11-05T17:53:47.437Z,60.00
2022-11-05T17:56:30.552Z,60.00
2022-11-05T17:59:03.862Z,60.00
2022-11-05T18:01:35.806Z,60.00
2022-11-05T18:04:08.917Z,60.00
2022-11-05T18:06:39.653Z,60.00
2022-11-05T18:09:10.134Z,60.00
2022-11-05T18:11:41.397Z,59.90
2022-11-05T18:14:11.215Z,60.00
2022-11-05T18:16:40.539Z,60.00
2022-11-05T18:19:09.790Z,60.00
2022-11-05T18:21:38.944Z,60.00
2022-11-05T18:24:08.965Z,59.90
2022-11-05T18:26:39.645Z,60.00
2022-11-05T18:29:09.116Z,59.90
2022-11-05T18:31:38.950Z,60.00
2022-11-05T18:34:10.523Z,60.00
2022-11-05T18:36:40.357Z,59.90
2022-11-05T18:39:09.871Z,59.80
2022-11-05T18:41:40.828Z,59.90
2022-11-05T18:44:12.701Z,59.90
2022-11-05T18:46:57.642Z,59.90
2022-11-05T18:49:27.935Z,59.90
2022-11-05T18:51:57.225Z,59.90
2022-11-05T18:54:26.392Z,59.90
2022-11-05T18:56:56.982Z,59.80
2022-11-05T18:59:41.443Z,59.90
2022-11-05T19:02:12.869Z,59.80
2022-11-05T19:05:00.307Z,59.90
2022-11-05T19:07:32.067Z,59.90
2022-11-05T19:10:01.399Z,59.90
2022-11-05T19:12:32.194Z,59.80
2022-11-05T19:15:02.959Z,59.90
2022-11-05T19:17:34.364Z,59.90
2022-11-05T19:20:04.526Z,59.80
2022-11-05T19:22:34.171Z,59.80
2022-11-05T19:25:03.442Z,59.80
2022-11-05T19:27:35.953Z,59.80
2022-11-05T19:30:06.077Z,59.90
2022-11-05T19:32:35.218Z,59.80
2022-11-05T19:35:04.456Z,59.80
2022-11-05T19:37:33.630Z,59.80
2022-11-05T19:40:02.912Z,59.90
2022-11-05T19:42:33.392Z,59.80
2022-11-05T19:45:23.105Z,59.80
2022-11-05T19:47:51.888Z,59.70
2022-11-05T19:50:21.134Z,59.80
2022-11-05T19:52:50.312Z,59.70
2022-11-05T19:55:19.645Z,59.80
2022-11-05T19:57:50.201Z,59.80
2022-11-05T20:00:20.047Z,59.80
2022-11-05T20:02:49.279Z,59.80
2022-11-05T20:05:19.400Z,59.80
2022-11-05T20:07:52.718Z,59.80
2022-11-05T20:10:22.849Z,59.70
2022-11-05T20:12:53.687Z,59.80
2022-11-05T20:15:23.078Z,59.80
2022-11-05T20:17:53.240Z,59.70
2022-11-05T20:20:22.990Z,59.70
2022-11-05T20:22:53.677Z,59.70
2022-11-05T20:25:22.951Z,59.70
2022-11-05T20:27:53.731Z,59.70
2022-11-05T20:30:23.013Z,59.70
2022-11-05T20:32:55.508Z,59.70
2022-11-05T20:35:25.281Z,59.70
2022-11-05T20:37:54.569Z,59.70
2022-11-05T20:40:23.955Z,59.70
2022-11-05T20:42:54.554Z,59.70
2022-11-05T20:45:23.753Z,59.70
2022-11-05T20:47:52.998Z,59.70
2022-11-05T20:50:22.288Z,59.70
2022-11-05T20:52:51.528Z,59.70
2022-11-05T20:55:20.788Z,59.70
2022-11-05T20:57:49.968Z,59.60
2022-11-05T21:00:22.200Z,59.70
2022-11-05T21:02:51.519Z,59.60
2022-11-05T21:05:20.998Z,59.60
2022-11-05T21:07:50.133Z,59.70
2022-11-05T21:10:19.613Z,59.60
2022-11-05T21:12:48.970Z,59.60
2022-11-05T21:15:22.990Z,59.50
2022-11-05T21:17:52.276Z,59.70
2022-11-05T21:20:21.565Z,59.70
2022-11-05T21:22:50.715Z,59.50
2022-11-05T21:25:19.983Z,59.40
2022-11-05T21:27:49.240Z,59.40
2022-11-05T21:30:20.001Z,59.50
2022-11-05T21:32:49.163Z,59.50
2022-11-05T21:35:18.347Z,59.50
2022-11-05T21:37:47.497Z,59.70
2022-11-05T21:40:16.949Z,59.60
2022-11-05T21:42:46.100Z,59.60
2022-11-05T21:45:15.663Z,59.60
2022-11-05T21:47:46.691Z,59.70
2022-11-05T21:50:20.864Z,59.60
2022-11-05T21:53:08.456Z,59.60
2022-11-05T21:55:59.515Z,59.60
2022-11-05T21:58:45.950Z,59.60
2022-11-05T22:01:15.104Z,59.60
2022-11-05T22:03:45.816Z,59.60
2022-11-05T22:06:15.410Z,59.60
2022-11-05T22:08:45.333Z,59.60
2022-11-05T22:11:14.934Z,59.60
2022-11-05T22:13:44.486Z,59.60
2022-11-05T22:16:13.623Z,59.60
2022-11-05T22:18:42.752Z,59.50
2022-11-05T22:21:18.820Z,59.40
2022-11-05T22:23:48.123Z,59.40
2022-11-05T22:26:17.825Z,59.40
2022-11-05T22:28:47.200Z,59.40
2022-11-05T22:31:17.474Z,59.40
2022-11-05T22:33:46.609Z,59.40
2022-11-05T22:36:17.195Z,59.40
2022-11-05T22:38:46.536Z,59.30
2022-11-05T22:41:18.794Z,59.30
2022-11-05T22:43:48.146Z,59.30
2022-11-05T22:46:18.789Z,59.30
2022-11-05T22:48:48.438Z,59.30
2022-11-05T22:51:21.874Z,59.30
2022-11-05T22:53:51.915Z,59.30
2022-11-05T22:56:23.941Z,59.30
2022-11-05T22:58:53.883Z,59.30
2022-11-05T23:01:24.346Z,59.30
2022-11-05T23:03:56.320Z,59.30
2022-11-05T23:06:46.322Z,59.30
2022-11-05T23:09:35.956Z,59.20
2022-11-05T23:12:07.087Z,59.30
2022-11-05T23:14:36.915Z,59.30
2022-11-05T23:17:23.569Z,59.20
2022-11-05T23:20:25.103Z,59.20
2022-11-05T23:23:13.342Z,59.20
2022-11-05T23:25:42.757Z,59.20
2022-11-05T23:28:13.194Z,59.20
2022-11-05T23:30:59.122Z,59.20
2022-11-05T23:33:28.806Z,59.20
2022-11-05T23:36:15.233Z,59.20
2022-11-05T23:38:45.802Z,59.20
2022-11-05T23:41:32.447Z,59.20
2022-11-05T23:44:19.162Z,59.20
2022-11-05T23:47:05.883Z,59.20
2022-11-05T23:49:35.188Z,59.20
2022-11-05T23:52:04.478Z,59.20
2022-11-05T23:54:35.033Z,59.30
2022-11-05T23:57:04.169Z,59.20
2022-11-05T23:59:33.313Z,59.20
